Time;durP1;ratioP1;P1;durP2;ratioP2;P2;SDS_P1;SDS_P2;PMS_P1;PMS_P2;Temp;Humidity;BMP_temperature;BMP_pressure;BME280_temperature;BME280_humidity;BME280_pressure;Samples;Min_cycle;Max_cycle;Signal;HPM_P1;HPM_P2
2022/11/10 00:00:05;;;;;;;32.88;2.95;;;9.70;99.90;;;;;;5076098;28;20077;-70
2022/11/10 00:02:31;;;;;;;28.20;3.60;;;9.70;99.90;;;;;;5075707;28;20484;-69
2022/11/10 00:04:57;;;;;;;28.90;3.70;;;9.70;99.90;;;;;;5072520;28;20068;-70
2022/11/10 00:07:26;;;;;;;37.33;3.78;;;9.80;99.90;;;;;;5055249;28;20130;-69
2022/11/10 00:09:52;;;;;;;37.20;4.47;;;9.70;99.90;;;;;;5055613;28;20506;-70
2022/11/10 00:12:20;;;;;;;43.25;4.90;;;9.70;99.90;;;;;;5070526;28;20033;-70
2022/11/10 00:17:29;;;;;;;;;;;9.60;99.90;;;;;;5076476;28;20028;-70
2022/11/10 00:19:55;;;;;;;41.17;4.50;;;9.70;99.90;;;;;;5074940;28;19904;-69
2022/11/10 00:22:21;;;;;;;42.08;5.35;;;9.50;99.90;;;;;;5075713;28;20108;-70
2022/11/10 00:24:46;;;;;;;48.00;5.80;;;9.50;99.90;;;;;;5075385;28;20036;-70
2022/11/10 00:27:13;;;;;;;40.35;3.85;;;9.50;99.90;;;;;;5075660;28;20052;-70
2022/11/10 00:29:39;;;;;;;23.08;4.00;;;9.50;99.90;;;;;;5075421;28;20107;-70
2022/11/10 00:32:05;;;;;;;43.17;5.88;;;9.50;99.90;;;;;;5074722;28;20024;-70
2022/11/10 00:34:30;;;;;;;53.55;6.28;;;9.40;99.90;;;;;;5075852;28;20082;-69
2022/11/10 00:36:56;;;;;;;48.10;5.38;;;9.40;99.90;;;;;;5075769;28;20036;-70
2022/11/10 00:39:21;;;;;;;45.88;4.47;;;9.30;99.90;;;;;;5074687;28;20017;-69
2022/11/10 00:41:47;;;;;;;51.92;5.15;;;9.20;99.90;;;;;;5074931;28;20420;-70
2022/11/10 00:44:12;;;;;;;47.35;6.18;;;9.20;99.90;;;;;;5075301;28;20407;-70
2022/11/10 00:46:38;;;;;;;57.10;6.60;;;9.20;99.90;;;;;;5074942;28;20462;-70
2022/11/10 00:49:04;;;;;;;53.70;5.85;;;9.30;99.90;;;;;;5074545;28;20086;-70
2022/11/10 00:51:29;;;;;;;46.70;5.55;;;9.40;99.90;;;;;;5074473;28;20070;-70
2022/11/10 00:53:55;;;;;;;60.03;6.90;;;9.40;99.90;;;;;;5075151;28;20017;-70
2022/11/10 00:56:22;;;;;;;39.05;5.65;;;9.40;99.90;;;;;;5074812;28;20067;-70
2022/11/10 00:58:47;;;;;;;39.38;4.35;;;9.50;99.90;;;;;;5074787;28;20491;-70
2022/11/10 01:01:14;;;;;;;41.95;4.55;;;9.60;99.90;;;;;;5074712;28;20130;-70
2022/11/10 01:03:40;;;;;;;25.38;3.42;;;9.60;99.90;;;;;;5074484;28;20024;-70
2022/11/10 01:06:09;;;;;;;26.98;5.32;;;9.60;99.90;;;;;;5074390;28;20071;-70
2022/11/10 01:08:35;;;;;;;25.10;3.25;;;9.60;99.90;;;;;;5074742;28;20030;-70
2022/11/10 01:11:02;;;;;;;26.45;3.38;;;9.50;99.90;;;;;;5074497;28;20025;-70
2022/11/10 01:13:28;;;;;;;26.85;3.75;;;9.40;99.90;;;;;;5074195;28;20027;-69
2022/11/10 01:15:54;;;;;;;22.45;2.97;;;9.40;99.90;;;;;;5074497;28;20025;-70
2022/11/10 01:18:19;;;;;;;22.30;2.78;;;9.30;99.90;;;;;;5074273;28;20025;-70
2022/11/10 01:20:50;;;;;;;24.58;2.72;;;9.20;99.90;;;;;;5074539;28;20468;-69
2022/11/10 01:23:15;;;;;;;29.60;3.20;;;9.10;99.90;;;;;;5056253;28;20013;-69
2022/11/10 01:25:41;;;;;;;18.60;3.35;;;9.00;99.90;;;;;;5073624;28;20032;-69
2022/11/10 01:28:07;;;;;;;19.10;2.95;;;8.90;99.90;;;;;;5073901;28;20111;-70
2022/11/10 01:30:32;;;;;;;11.48;1.83;;;8.80;99.90;;;;;;5074086;28;20044;-69
2022/11/10 01:32:58;;;;;;;18.58;2.75;;;8.80;99.90;;;;;;5073909;28;20387;-70
2022/11/10 01:35:23;;;;;;;24.83;2.72;;;8.70;99.90;;;;;;5073902;28;20016;-70
2022/11/10 01:37:51;;;;;;;14.25;1.73;;;8.50;99.90;;;;;;5074192;28;20502;-70
2022/11/10 01:40:17;;;;;;;13.50;2.97;;;8.50;99.90;;;;;;5073330;28;20032;-69
2022/11/10 01:42:55;;;;;;;18.15;2.35;;;8.30;99.90;;;;;;5073794;28;20037;-70
2022/11/10 01:45:23;;;;;;;14.98;2.35;;;8.30;99.90;;;;;;5073886;28;20032;-70
2022/11/10 01:47:56;;;;;;;19.73;1.95;;;8.20;99.90;;;;;;5073791;28;20054;-70
2022/11/10 01:50:28;;;;;;;18.23;1.63;;;8.10;99.90;;;;;;5073194;28;20017;-69
2022/11/10 01:52:58;;;;;;;20.10;1.60;;;7.90;99.90;;;;;;5073631;28;20025;-70
2022/11/10 01:55:24;;;;;;;18.80;1.98;;;7.80;99.90;;;;;;5074607;28;20012;-70
2022/11/10 01:57:50;;;;;;;7.80;1.40;;;7.70;99.90;;;;;;5073707;28;20020;-70
2022/11/10 02:00:17;;;;;;;10.18;2.17;;;7.70;99.90;;;;;;5073518;28;20020;-69
2022/11/10 02:02:51;;;;;;;18.27;2.35;;;7.70;99.90;;;;;;5073426;28;20028;-70
2022/11/10 02:05:17;;;;;;;17.40;2.65;;;7.70;99.90;;;;;;5073183;28;20036;-69
2022/11/10 02:07:43;;;;;;;12.82;1.70;;;7.70;99.90;;;;;;5073506;28;20077;-69
2022/11/10 02:10:14;;;;;;;16.08;2.80;;;7.70;99.90;;;;;;5073677;28;20028;-70
2022/11/10 02:12:40;;;;;;;28.13;2.83;;;7.60;99.90;;;;;;5072674;28;20024;-69
2022/11/10 02:15:08;;;;;;;8.05;1.27;;;7.70;99.90;;;;;;5073616;28;20070;-69
2022/11/10 02:17:33;;;;;;;27.67;2.42;;;7.60;99.90;;;;;;5073318;28;20434;-69
2022/11/10 02:20:03;;;;;;;17.55;2.50;;;7.50;99.90;;;;;;5073249;28;20025;-70
2022/11/10 02:22:29;;;;;;;14.60;1.45;;;7.40;99.90;;;;;;5073093;28;20503;-69
2022/11/10 02:24:55;;;;;;;17.42;2.25;;;7.40;99.90;;;;;;5073279;28;20488;-69
2022/11/10 02:27:20;;;;;;;17.88;2.13;;;7.30;99.90;;;;;;5072632;28;20025;-70
2022/11/10 02:29:46;;;;;;;22.65;2.60;;;7.20;99.90;;;;;;5073448;28;20116;-69
2022/11/10 02:32:12;;;;;;;15.85;2.38;;;7.30;99.90;;;;;;5073114;28;20017;-69
2022/11/10 02:34:37;;;;;;;17.95;2.15;;;7.40;99.90;;;;;;5055138;28;20027;-70
2022/11/10 02:37:03;;;;;;;15.05;3.42;;;7.40;99.90;;;;;;5073409;28;20353;-70
2022/11/10 02:39:29;;;;;;;20.25;2.80;;;7.50;99.90;;;;;;5072479;28;20017;-69
2022/11/10 02:41:54;;;;;;;22.33;2.67;;;7.50;99.90;;;;;;5072943;28;20039;-70
2022/11/10 02:44:25;;;;;;;43.17;5.00;;;7.70;99.90;;;;;;5073055;28;20028;-69
2022/11/10 02:46:51;;;;;;;28.30;2.78;;;7.70;99.90;;;;;;5072997;28;20027;-70
2022/11/10 02:49:16;;;;;;;39.17;3.55;;;7.80;99.90;;;;;;5072991;28;20125;-69
2022/11/10 02:51:42;;;;;;;25.92;3.72;;;8.00;99.90;;;;;;5072318;28;20020;-70
2022/11/10 02:54:07;;;;;;;25.92;3.20;;;8.00;99.90;;;;;;5072844;28;20035;-69
2022/11/10 02:56:34;;;;;;;14.45;2.70;;;8.00;99.90;;;;;;5073499;28;20089;-70
2022/11/10 02:59:00;;;;;;;26.83;3.75;;;8.00;99.90;;;;;;5071717;28;20055;-70
2022/11/10 03:01:25;;;;;;;21.70;3.80;;;8.00;99.90;;;;;;5052385;28;20037;-70
2022/11/10 03:03:51;;;;;;;31.83;3.38;;;8.10;99.90;;;;;;5053142;28;20052;-70
2022/11/10 03:06:16;;;;;;;27.10;3.78;;;8.20;99.90;;;;;;5052905;28;20503;-70
2022/11/10 03:08:42;;;;;;;40.90;4.60;;;8.30;99.90;;;;;;5052797;28;20496;-70
2022/11/10 03:11:08;;;;;;;23.00;3.70;;;8.70;99.90;;;;;;5052789;28;20062;-70
2022/11/10 03:13:33;;;;;;;20.27;2.85;;;9.10;99.90;;;;;;5060447;28;20099;-69
2022/11/10 03:15:59;;;;;;;18.02;1.88;;;9.30;99.90;;;;;;5072262;28;20017;-69
2022/11/10 03:18:24;;;;;;;12.75;1.90;;;9.30;99.90;;;;;;5072797;28;20024;-70
2022/11/10 03:20:50;;;;;;;13.60;1.92;;;9.20;99.90;;;;;;5072619;28;20053;-70
2022/11/10 03:23:17;;;;;;;15.50;2.88;;;9.10;99.90;;;;;;5072996;28;20048;-70
2022/11/10 03:25:43;;;;;;;15.13;1.98;;;9.00;99.90;;;;;;5071999;28;20074;-70
2022/11/10 03:28:08;;;;;;;13.48;2.45;;;8.90;99.90;;;;;;5072921;28;20024;-69
2022/11/10 03:30:34;;;;;;;15.52;2.08;;;8.80;99.90;;;;;;5072817;28;20012;-70
2022/11/10 03:33:00;;;;;;;14.60;2.28;;;8.70;99.90;;;;;;5073806;28;20379;-70
2022/11/10 03:35:26;;;;;;;9.73;2.67;;;8.70;99.90;;;;;;5075995;28;20074;-69
2022/11/10 03:37:51;;;;;;;21.08;2.28;;;8.80;99.90;;;;;;5076082;28;20025;-69
2022/11/10 03:40:17;;;;;;;18.27;3.25;;;8.70;99.90;;;;;;5076053;28;20384;-69
2022/11/10 03:42:43;;;;;;;24.40;3.05;;;8.70;99.90;;;;;;5076589;28;20036;-70
2022/11/10 03:45:13;;;;;;;27.92;3.63;;;8.70;99.90;;;;;;5076115;28;20035;-70
2022/11/10 03:47:39;;;;;;;22.63;2.92;;;8.80;99.90;;;;;;5076404;28;20028;-69
2022/11/10 03:50:05;;;;;;;24.85;2.92;;;8.90;99.90;;;;;;5075389;28;20021;-69
2022/11/10 03:52:32;;;;;;;25.80;3.38;;;8.90;99.90;;;;;;5076000;28;20155;-69
2022/11/10 03:54:57;;;;;;;36.92;4.30;;;8.90;99.90;;;;;;5076033;28;20032;-69
2022/11/10 03:57:23;;;;;;;43.50;3.50;;;8.90;99.90;;;;;;5075815;28;20025;-69
2022/11/10 03:59:48;;;;;;;24.52;3.75;;;8.90;99.90;;;;;;5075225;28;20365;-69
2022/11/10 04:02:14;;;;;;;41.03;6.13;;;9.00;99.90;;;;;;5075771;28;20036;-69
2022/11/10 04:10:08;;;;;;;23.48;3.47;;;9.10;99.90;;;;;;5076005;28;20085;-70
2022/11/10 04:18:20;;;;;;;;;;;9.00;99.90;;;;;;5076033;28;20523;-70
2022/11/10 04:20:57;;;;;;;38.38;4.88;;;9.10;99.90;;;;;;5075319;28;20292;-69
2022/11/10 04:23:27;;;;;;;40.35;4.65;;;9.30;99.90;;;;;;5075537;28;20031;-69
2022/11/10 04:28:50;;;;;;;43.20;4.30;;;9.50;99.90;;;;;;5075441;28;20032;-69
2022/11/10 04:31:19;;;;;;;39.80;4.75;;;9.50;99.90;;;;;;5075354;28;20049;-69
2022/11/10 04:33:45;;;;;;;45.03;5.35;;;9.60;99.90;;;;;;5075267;28;20075;-69
2022/11/10 04:36:13;;;;;;;41.72;4.97;;;9.80;99.90;;;;;;5074673;28;20025;-70
2022/11/10 04:38:39;;;;;;;31.13;4.93;;;9.80;99.90;;;;;;5075465;28;20074;-69
2022/11/10 04:41:05;;;;;;;45.15;5.65;;;9.80;99.90;;;;;;5128954;22;20052;-73
2022/11/10 04:43:31;;;;;;;49.88;5.20;;;9.80;99.90;;;;;;5075132;28;20039;-73
2022/11/10 04:45:58;;;;;;;55.10;5.10;;;9.90;99.90;;;;;;5076067;28;20052;-73
2022/11/10 04:48:24;;;;;;;46.25;7.70;;;9.90;99.90;;;;;;5074988;28;20019;-72
2022/11/10 04:50:50;;;;;;;37.50;4.63;;;9.90;99.90;;;;;;5075203;28;20032;-72
2022/11/10 04:53:16;;;;;;;42.15;5.90;;;10.00;99.90;;;;;;5057482;28;20017;-73
2022/11/10 04:55:43;;;;;;;50.72;6.05;;;10.00;99.90;;;;;;5075555;28;20051;-73
2022/11/10 04:58:09;;;;;;;51.63;5.72;;;10.00;99.90;;;;;;5075106;28;20023;-73
2022/11/10 05:00:36;;;;;;;68.00;5.78;;;10.00;99.90;;;;;;5075062;28;20024;-73
2022/11/10 05:03:03;;;;;;;45.75;5.78;;;10.10;99.90;;;;;;5074706;28;20028;-72
2022/11/10 05:05:29;;;;;;;58.67;5.70;;;10.10;99.90;;;;;;5075252;28;20111;-73
2022/11/10 05:07:55;;;;;;;30.40;4.50;;;10.10;99.90;;;;;;5074462;28;20063;-72
2022/11/10 05:10:20;;;;;;;40.05;3.97;;;10.10;99.90;;;;;;5074881;28;20060;-73
2022/11/10 05:12:46;;;;;;;41.17;6.47;;;10.00;99.90;;;;;;5075429;28;20033;-72
2022/11/10 05:15:11;;;;;;;53.78;5.72;;;10.10;99.90;;;;;;5074726;28;20391;-72
2022/11/10 05:17:37;;;;;;;44.53;3.92;;;10.00;99.90;;;;;;5074563;28;20039;-71
2022/11/10 05:20:04;;;;;;;31.70;4.15;;;10.20;99.90;;;;;;5074728;28;20024;-72
2022/11/10 05:22:29;;;;;;;28.63;3.88;;;10.20;99.90;;;;;;5074603;28;20036;-73
2022/11/10 05:24:55;;;;;;;15.55;3.50;;;10.10;99.90;;;;;;5074732;28;20388;-73
2022/11/10 05:27:21;;;;;;;20.65;3.33;;;10.10;99.90;;;;;;5074483;28;20089;-72
2022/11/10 05:29:46;;;;;;;29.35;2.85;;;10.10;99.90;;;;;;5074485;28;20075;-73
2022/11/10 05:32:12;;;;;;;46.33;5.53;;;10.00;99.90;;;;;;5074716;28;20543;-73
2022/11/10 05:34:37;;;;;;;47.30;4.32;;;10.00;99.90;;;;;;5074445;28;20028;-72
2022/11/10 05:37:03;;;;;;;33.03;4.38;;;10.10;99.90;;;;;;5074525;28;20027;-72
2022/11/10 05:39:28;;;;;;;27.85;2.92;;;10.10;99.90;;;;;;5056185;28;20017;-72
2022/11/10 05:41:54;;;;;;;27.50;2.97;;;10.10;99.90;;;;;;5073792;28;20067;-72
2022/11/10 05:44:19;;;;;;;35.03;3.15;;;10.10;99.90;;;;;;5074400;28;20029;-73
2022/11/10 05:46:45;;;;;;;42.38;4.28;;;10.00;99.90;;;;;;5074221;28;20031;-73
2022/11/10 05:49:10;;;;;;;33.88;4.22;;;10.10;99.90;;;;;;5074476;28;20107;-73
2022/11/10 05:51:36;;;;;;;40.78;4.10;;;10.10;99.90;;;;;;5074147;28;20025;-72
2022/11/10 05:54:01;;;;;;;50.80;6.28;;;10.20;99.90;;;;;;5073894;28;20032;-73
2022/11/10 05:56:27;;;;;;;44.03;4.63;;;10.30;99.90;;;;;;5073366;28;20043;-73
2022/11/10 05:58:52;;;;;;;39.08;4.32;;;10.30;99.90;;;;;;5073962;28;20028;-72
2022/11/10 06:01:18;;;;;;;49.45;5.63;;;10.30;99.90;;;;;;5073981;28;20514;-73
2022/11/10 06:03:43;;;;;;;40.47;6.20;;;10.30;99.90;;;;;;5074069;28;20034;-73
2022/11/10 06:06:09;;;;;;;42.47;4.60;;;10.50;99.90;;;;;;5073386;28;20099;-73
2022/11/10 06:08:34;;;;;;;52.58;6.07;;;10.60;99.90;;;;;;5073930;28;20054;-73
2022/11/10 06:11:00;;;;;;;50.72;5.43;;;10.60;99.90;;;;;;5073794;28;20505;-73
2022/11/10 06:13:25;;;;;;;48.10;6.07;;;10.70;99.90;;;;;;5073259;28;20021;-73
2022/11/10 06:15:51;;;;;;;36.75;5.00;;;10.70;99.90;;;;;;5074390;28;20096;-73
2022/11/10 06:18:17;;;;;;;36.40;5.82;;;10.80;99.90;;;;;;5073794;28;20048;-73
2022/11/10 06:20:44;;;;;;;54.92;7.25;;;10.90;99.90;;;;;;5073722;28;20021;-73
2022/11/10 06:23:11;;;;;;;36.50;5.97;;;10.90;99.90;;;;;;5073277;28;20514;-72
2022/11/10 06:25:38;;;;;;;38.97;4.80;;;10.90;99.90;;;;;;5073654;28;20475;-73
2022/11/10 06:28:05;;;;;;;40.22;6.53;;;10.90;99.90;;;;;;5073482;28;20480;-73
2022/11/10 06:30:32;;;;;;;38.05;6.55;;;10.80;99.90;;;;;;5073496;28;20028;-73
2022/11/10 06:32:58;;;;;;;47.72;6.63;;;10.90;99.90;;;;;;5073074;28;20032;-73
2022/11/10 06:35:25;;;;;;;47.97;5.95;;;10.90;99.90;;;;;;5073475;28;20039;-73
2022/11/10 06:38:05;;;;;;;53.28;8.18;;;10.90;99.90;;;;;;5073577;28;20025;-73
2022/11/10 06:40:31;;;;;;;55.40;6.65;;;11.00;99.90;;;;;;5073723;28;20090;-73
2022/11/10 06:42:57;;;;;;;61.90;6.95;;;11.00;99.90;;;;;;5073629;28;20063;-73
2022/11/10 06:45:23;;;;;;;60.47;8.20;;;11.00;99.90;;;;;;5073411;28;20467;-73
2022/11/10 06:48:10;;;;;;;41.80;6.45;;;11.10;99.90;;;;;;5073264;28;20051;-73
2022/11/10 06:50:35;;;;;;;52.55;6.85;;;11.00;99.90;;;;;;5073618;28;20070;-73
2022/11/10 06:53:01;;;;;;;45.22;5.88;;;11.00;99.90;;;;;;5073474;28;20056;-73
2022/11/10 06:55:27;;;;;;;54.85;7.07;;;11.00;99.90;;;;;;5056349;28;20040;-73
2022/11/10 06:57:53;;;;;;;68.53;7.07;;;10.90;99.90;;;;;;5072719;28;20017;-73
2022/11/10 07:00:19;;;;;;;46.70;6.90;;;10.90;99.90;;;;;;5073393;28;20053;-73
2022/11/10 07:02:44;;;;;;;40.97;5.07;;;10.80;99.90;;;;;;5073530;28;20024;-73
2022/11/10 07:05:10;;;;;;;53.08;6.47;;;10.80;99.90;;;;;;5073325;28;20387;-73
2022/11/10 07:07:35;;;;;;;61.30;6.53;;;10.80;99.90;;;;;;5053618;28;20029;-73
2022/11/10 07:10:01;;;;;;;51.97;6.20;;;10.90;99.90;;;;;;5056755;28;20037;-73
2022/11/10 07:12:26;;;;;;;48.60;7.97;;;10.80;99.90;;;;;;5057471;28;20434;-73
2022/11/10 07:14:52;;;;;;;71.10;7.07;;;10.90;99.90;;;;;;5057426;28;20067;-73
2022/11/10 07:17:17;;;;;;;57.58;6.47;;;10.80;99.90;;;;;;5057790;28;20365;-73
2022/11/10 07:19:43;;;;;;;63.78;8.25;;;10.90;99.90;;;;;;5066914;28;20017;-72
2022/11/10 07:22:09;;;;;;;50.50;5.88;;;10.90;99.90;;;;;;5076822;28;20051;-73
2022/11/10 07:24:35;;;;;;;63.58;5.85;;;10.90;99.90;;;;;;5059023;28;20024;-73
2022/11/10 07:27:03;;;;;;;67.32;7.05;;;10.90;99.90;;;;;;5077582;28;20032;-73
2022/11/10 07:29:29;;;;;;;64.40;8.05;;;10.90;99.90;;;;;;5076971;28;20476;-73
2022/11/10 07:31:55;;;;;;;59.70;6.47;;;10.80;99.90;;;;;;5076802;28;20032;-73
2022/11/10 07:34:20;;;;;;;36.47;6.13;;;10.90;99.90;;;;;;5076435;28;20028;-73
2022/11/10 07:36:46;;;;;;;39.50;5.78;;;10.80;99.90;;;;;;5060086;28;20031;-73
2022/11/10 07:39:11;;;;;;;65.38;6.68;;;10.90;99.90;;;;;;5056807;28;20021;-73
2022/11/10 07:41:37;;;;;;;52.10;6.07;;;10.90;99.90;;;;;;5076601;28;20040;-73
2022/11/10 07:44:03;;;;;;;58.60;6.85;;;10.90;99.90;;;;;;5076694;28;20032;-73
2022/11/10 07:46:28;;;;;;;59.53;6.82;;;10.90;99.90;;;;;;5076133;28;20098;-73
2022/11/10 07:48:54;;;;;;;48.60;6.20;;;10.90;99.90;;;;;;5076602;28;20031;-73
2022/11/10 07:51:20;;;;;;;45.83;6.75;;;10.90;99.90;;;;;;5076434;28;20031;-72
2022/11/10 07:53:45;;;;;;;43.40;5.72;;;11.00;99.90;;;;;;5077118;28;20031;-73
2022/11/10 07:56:11;;;;;;;55.45;7.13;;;11.00;99.90;;;;;;5077390;28;20031;-72
2022/11/10 07:58:36;;;;;;;49.55;7.07;;;11.10;99.90;;;;;;5077156;28;20021;-73
2022/11/10 08:01:02;;;;;;;53.67;7.35;;;11.10;99.90;;;;;;5058482;28;20020;-72
2022/11/10 08:03:27;;;;;;;45.85;5.72;;;11.10;99.90;;;;;;5076214;28;20040;-73
2022/11/10 08:05:54;;;;;;;54.47;7.57;;;11.20;99.90;;;;;;5076179;28;20029;-73
2022/11/10 08:08:19;;;;;;;61.17;6.28;;;11.20;99.90;;;;;;5076149;28;20017;-73
2022/11/10 08:10:45;;;;;;;45.60;5.18;;;11.10;99.90;;;;;;5076090;28;20020;-73
2022/11/10 08:13:12;;;;;;;43.92;4.88;;;11.20;99.90;;;;;;5075434;28;20052;-72
2022/11/10 08:15:38;;;;;;;53.97;6.32;;;11.20;99.90;;;;;;5058425;28;20025;-73
2022/11/10 08:18:12;;;;;;;55.88;6.72;;;11.20;99.90;;;;;;5076333;28;20016;-73
2022/11/10 08:20:38;;;;;;;44.80;6.93;;;11.20;99.90;;;;;;5057842;28;20479;-74
2022/11/10 08:23:05;;;;;;;49.40;5.85;;;11.20;99.90;;;;;;5057636;28;20078;-73
2022/11/10 08:25:33;;;;;;;55.20;7.82;;;11.30;99.90;;;;;;5075847;28;20028;-73
2022/11/10 08:28:00;;;;;;;60.33;6.40;;;11.30;99.90;;;;;;5057927;28;20029;-73
2022/11/10 08:30:27;;;;;;;63.42;8.88;;;11.30;99.90;;;;;;5075706;28;20037;-73
2022/11/10 08:32:59;;;;;;;55.40;6.50;;;11.40;99.90;;;;;;5075662;28;20060;-73
2022/11/10 08:35:26;;;;;;;54.15;6.78;;;11.40;99.90;;;;;;5057231;28;20020;-73
2022/11/10 08:37:54;;;;;;;57.22;6.25;;;11.40;99.90;;;;;;5075448;28;20367;-73
2022/11/10 08:40:21;;;;;;;48.42;6.57;;;11.50;99.90;;;;;;5075231;28;20035;-72
2022/11/10 08:42:47;;;;;;;50.45;5.88;;;11.50;99.90;;;;;;5075514;28;20101;-72
2022/11/10 08:45:13;;;;;;;52.13;5.65;;;11.50;99.90;;;;;;5074862;28;20020;-73
2022/11/10 08:47:39;;;;;;;47.38;6.57;;;11.50;99.90;;;;;;5065976;28;20484;-73
2022/11/10 08:50:06;;;;;;;36.67;5.93;;;11.60;99.90;;;;;;5055223;28;20113;-72
2022/11/10 08:52:31;;;;;;;36.67;4.90;;;11.70;99.90;;;;;;5055436;28;20450;-73
2022/11/10 08:54:57;;;;;;;44.30;5.60;;;11.70;99.90;;;;;;5055285;28;20036;-74
2022/11/10 08:57:23;;;;;;;38.13;5.10;;;11.70;99.90;;;;;;5054395;28;20013;-72
2022/11/10 08:59:48;;;;;;;50.00;7.13;;;11.70;99.90;;;;;;5055011;28;20064;-72
2022/11/10 09:02:14;;;;;;;37.65;7.45;;;11.70;99.90;;;;;;5055071;28;20095;-73
2022/11/10 09:04:39;;;;;;;51.60;7.72;;;11.70;99.90;;;;;;5052688;28;20466;-72
2022/11/10 09:07:05;;;;;;;42.53;6.18;;;11.70;99.90;;;;;;5075459;28;20082;-73
2022/11/10 09:09:30;;;;;;;63.90;6.53;;;11.70;99.90;;;;;;5056348;28;20024;-73
2022/11/10 09:11:56;;;;;;;50.38;6.18;;;11.70;99.90;;;;;;5074709;28;20039;-73
2022/11/10 09:14:21;;;;;;;37.55;5.13;;;11.80;99.90;;;;;;5074614;28;20430;-73
2022/11/10 09:16:47;;;;;;;39.70;6.90;;;11.80;99.90;;;;;;5074339;28;20520;-72
2022/11/10 09:19:13;;;;;;;55.78;6.70;;;11.90;99.90;;;;;;5074630;28;20070;-73
2022/11/10 09:21:38;;;;;;;62.75;5.95;;;11.90;99.90;;;;;;5074666;28;20078;-73
2022/11/10 09:24:04;;;;;;;47.22;7.13;;;11.90;99.90;;;;;;5074998;28;20025;-73
2022/11/10 09:26:31;;;;;;;52.72;7.18;;;11.90;99.90;;;;;;5056146;28;20054;-74
2022/11/10 09:28:56;;;;;;;56.03;7.45;;;12.00;99.90;;;;;;5074641;28;20031;-74
2022/11/10 09:31:22;;;;;;;40.78;6.53;;;12.00;99.90;;;;;;5073379;28;20032;-74
2022/11/10 09:33:48;;;;;;;53.35;4.97;;;12.00;99.90;;;;;;5074631;28;20070;-74
2022/11/10 09:36:13;;;;;;;41.88;6.85;;;12.00;99.90;;;;;;5073981;28;20040;-74
2022/11/10 09:38:39;;;;;;;51.42;5.70;;;12.00;99.90;;;;;;5074745;28;20025;-74
2022/11/10 09:41:06;;;;;;;60.00;7.93;;;12.10;99.90;;;;;;5074375;28;20032;-75
2022/11/10 09:44:00;;;;;;;53.95;7.97;;;12.10;99.90;;;;;;5074509;28;20472;-74
2022/11/10 09:46:48;;;;;;;47.80;6.25;;;12.10;99.90;;;;;;5056170;28;20024;-74
2022/11/10 09:49:43;;;;;;;46.80;6.20;;;12.20;99.90;;;;;;5041346;28;20016;-73
2022/11/10 09:52:11;;;;;;;46.75;6.18;;;12.20;99.90;;;;;;5074160;28;20035;-72
2022/11/10 09:55:28;;;;;;;35.78;5.47;;;12.20;99.90;;;;;;5073856;28;20012;-73
2022/11/10 09:57:55;;;;;;;47.60;6.38;;;12.30;99.90;;;;;;5054395;28;20041;-74
2022/11/10 10:00:21;;;;;;;42.90;6.85;;;12.20;99.90;;;;;;5054191;28;20502;-74
2022/11/10 10:03:01;;;;;;;46.90;8.27;;;12.30;99.90;;;;;;5053569;28;20029;-73
2022/11/10 10:06:11;;;;;;;55.10;7.57;;;12.30;99.90;;;;;;5036124;28;20025;-74
2022/11/10 10:08:36;;;;;;;43.65;5.63;;;12.30;99.90;;;;;;5009901;28;20037;-74
2022/11/10 10:11:26;;;;;;;46.50;6.47;;;12.40;99.90;;;;;;5071720;28;20027;-74
2022/11/10 10:14:03;;;;;;;54.10;6.53;;;12.40;99.90;;;;;;5073339;28;20025;-73
2022/11/10 10:16:50;;;;;;;36.83;5.78;;;12.40;99.90;;;;;;5073711;28;20085;-74
2022/11/10 10:19:43;;;;;;;37.50;6.18;;;12.50;99.90;;;;;;5073999;28;20104;-73
2022/11/10 10:22:43;;;;;;;49.72;6.63;;;12.60;99.90;;;;;;5058335;28;20021;-74
2022/11/10 10:25:15;;;;;;;56.15;8.73;;;12.60;99.90;;;;;;5053703;28;20033;-74
2022/11/10 10:27:44;;;;;;;47.33;6.22;;;12.60;99.90;;;;;;5053240;28;20378;-74
2022/11/10 10:30:14;;;;;;;56.42;6.30;;;12.50;99.90;;;;;;5053493;28;20021;-74
2022/11/10 10:32:40;;;;;;;41.65;5.80;;;12.70;99.90;;;;;;5056960;28;20021;-73
2022/11/10 10:35:08;;;;;;;43.33;6.13;;;12.70;99.90;;;;;;5073088;28;20024;-74
2022/11/10 10:37:44;;;;;;;44.05;7.05;;;12.70;99.90;;;;;;5073567;28;20019;-73
2022/11/10 10:40:21;;;;;;;48.60;7.05;;;12.70;99.90;;;;;;5073478;28;20120;-73
2022/11/10 10:42:47;;;;;;;45.58;8.18;;;12.70;99.90;;;;;;5073219;28;20389;-74
2022/11/10 10:45:18;;;;;;;49.20;7.07;;;12.70;99.90;;;;;;5073330;28;20032;-74
2022/11/10 10:47:44;;;;;;;42.33;5.70;;;12.70;99.90;;;;;;5055826;28;20024;-74
2022/11/10 10:50:30;;;;;;;58.45;6.47;;;12.60;99.90;;;;;;5073024;28;20032;-74
2022/11/10 10:53:05;;;;;;;42.72;6.68;;;12.60;99.90;;;;;;5073341;28;20032;-73
2022/11/10 10:55:32;;;;;;;45.08;6.28;;;12.70;99.90;;;;;;5055572;28;20388;-74
2022/11/10 10:58:19;;;;;;;49.13;6.93;;;12.70;99.90;;;;;;5073458;28;20110;-74
2022/11/10 11:00:47;;;;;;;45.92;5.82;;;12.80;99.90;;;;;;5072873;28;20060;-74
2022/11/10 11:03:24;;;;;;;40.50;7.13;;;12.80;99.90;;;;;;5055413;28;20024;-73
2022/11/10 11:06:14;;;;;;;50.08;8.15;;;12.70;99.90;;;;;;5073439;28;20103;-74
2022/11/10 11:08:57;;;;;;;59.67;6.45;;;12.70;99.90;;;;;;5072825;28;20099;-74
2022/11/10 11:11:29;;;;;;;66.30;8.15;;;12.70;99.90;;;;;;5073430;28;20031;-74
2022/11/10 11:14:21;;;;;;;56.35;8.00;;;12.70;99.90;;;;;;5073226;28;20052;-74
2022/11/10 11:16:54;;;;;;;67.00;8.20;;;12.70;99.90;;;;;;5072980;28;20046;-73
2022/11/10 11:19:23;;;;;;;39.70;6.40;;;12.60;99.90;;;;;;5073309;28;20078;-74
2022/11/10 11:22:03;;;;;;;46.10;5.97;;;12.60;99.90;;;;;;5073165;28;20271;-74
2022/11/10 11:25:00;;;;;;;34.88;5.65;;;12.60;99.90;;;;;;5073213;28;20533;-74
2022/11/10 11:27:48;;;;;;;55.83;7.63;;;12.60;99.90;;;;;;5059502;28;20450;-74
2022/11/10 11:30:27;;;;;;;49.35;6.57;;;12.60;99.90;;;;;;5054535;28;20035;-74
2022/11/10 11:33:17;;;;;;;58.20;9.68;;;12.60;99.90;;;;;;5073048;28;20020;-74
2022/11/10 11:36:01;;;;;;;66.70;8.63;;;12.60;99.90;;;;;;5073334;28;20107;-74
2022/11/10 11:38:32;;;;;;;43.72;6.20;;;12.60;99.90;;;;;;5062038;28;20387;-74
2022/11/10 11:41:12;;;;;;;45.13;6.20;;;12.70;99.90;;;;;;5053156;28;20482;-74
2022/11/10 11:43:45;;;;;;;58.47;7.72;;;12.70;99.90;;;;;;5043640;28;20044;-74
2022/11/10 11:46:19;;;;;;;51.72;7.25;;;12.80;99.90;;;;;;5033505;28;20048;-74
2022/11/10 11:49:22;;;;;;;49.05;6.50;;;12.70;99.90;;;;;;5033030;28;20120;-74
2022/11/10 11:52:17;;;;;;;63.42;8.10;;;12.80;99.90;;;;;;5033065;28;20405;-74
2022/11/10 11:55:11;;;;;;;47.35;6.15;;;12.80;99.90;;;;;;5045557;28;20036;-74
2022/11/10 11:57:48;;;;;;;52.63;6.97;;;12.80;99.90;;;;;;5036035;28;20017;-73
2022/11/10 12:00:17;;;;;;;38.22;6.43;;;12.90;99.90;;;;;;5048292;28;20533;-73
2022/11/10 12:02:48;;;;;;;43.50;6.18;;;12.90;99.90;;;;;;5056038;28;20036;-74
2022/11/10 12:05:45;;;;;;;59.92;7.43;;;13.00;99.90;;;;;;5054888;28;20029;-73
2022/11/10 12:08:39;;;;;;;55.13;7.18;;;13.00;99.90;;;;;;5056537;28;20033;-73
2022/11/10 12:11:31;;;;;;;45.47;6.53;;;13.00;99.90;;;;;;5055553;28;20027;-73
2022/11/10 12:14:08;;;;;;;54.25;7.72;;;13.00;99.90;;;;;;5056367;28;20108;-73
2022/11/10 12:16:34;;;;;;;54.35;6.68;;;13.00;99.90;;;;;;5057624;28;20032;-73
2022/11/10 12:19:44;;;;;;;45.10;8.73;;;12.90;99.90;;;;;;5075899;28;20491;-73
2022/11/10 12:22:31;;;;;;;52.20;6.57;;;13.00;99.90;;;;;;4974346;28;20038;-73
2022/11/10 12:25:12;;;;;;;55.05;6.47;;;13.00;99.90;;;;;;5076147;28;20516;-73
2022/11/10 12:27:42;;;;;;;56.63;7.18;;;13.00;99.90;;;;;;5074086;28;20032;-70
2022/11/10 12:30:13;;;;;;;39.13;7.28;;;12.90;99.90;;;;;;5056011;28;20102;-73
2022/11/10 12:32:54;;;;;;;51.58;7.53;;;12.90;99.90;;;;;;5075894;28;20108;-73
2022/11/10 12:35:37;;;;;;;48.45;7.10;;;12.90;99.90;;;;;;5035660;28;20033;-73
2022/11/10 12:38:20;;;;;;;37.43;7.30;;;12.90;99.90;;;;;;5038134;28;20389;-73
2022/11/10 12:40:50;;;;;;;47.60;6.97;;;12.90;99.90;;;;;;5035744;28;20056;-73
2022/11/10 12:43:41;;;;;;;49.55;7.43;;;12.90;99.90;;;;;;5018460;28;20045;-73
2022/11/10 12:46:09;;;;;;;54.83;8.20;;;12.90;99.90;;;;;;5035006;28;20408;-72
2022/11/10 12:48:56;;;;;;;38.92;5.72;;;12.90;99.90;;;;;;5068132;28;20032;-73
2022/11/10 12:51:41;;;;;;;39.78;7.70;;;12.90;99.90;;;;;;5075244;28;20020;-73
2022/11/10 12:54:11;;;;;;;65.78;7.60;;;12.90;99.90;;;;;;5075566;28;20575;-73
2022/11/10 12:56:42;;;;;;;49.50;7.15;;;12.90;99.90;;;;;;5074898;28;20031;-73
2022/11/10 12:59:21;;;;;;;50.13;7.07;;;12.90;99.90;;;;;;5052376;28;20055;-73
2022/11/10 13:01:56;;;;;;;51.75;8.25;;;13.00;99.90;;;;;;5055189;28;20025;-73
2022/11/10 13:04:22;;;;;;;58.35;7.93;;;12.90;99.90;;;;;;5041633;28;20044;-73
2022/11/10 13:06:55;;;;;;;45.95;7.22;;;13.00;99.90;;;;;;5035105;28;20104;-73
2022/11/10 13:09:22;;;;;;;55.15;8.35;;;13.10;99.90;;;;;;5043887;28;20484;-73